createdAt,value
2022-12-20T00:01:50.021Z,97737.81
2022-12-20T00:07:11.020Z,97738.56
2022-12-20T00:12:31.675Z,97754.81
2022-12-20T00:17:52.499Z,97763.47
2022-12-20T00:23:13.121Z,97761.31
2022-12-20T00:28:35.902Z,97773.31
2022-12-20T00:33:58.982Z,97768.03
2022-12-20T00:39:20.087Z,97747.16
2022-12-20T00:44:40.874Z,97727.84
2022-12-20T00:50:01.869Z,97726.22
2022-12-20T00:55:22.349Z,97727.16
2022-12-20T01:00:43.104Z,97742.09
2022-12-20T01:06:03.826Z,97731.44
2022-12-20T01:11:28.114Z,97738.28
2022-12-20T01:16:48.885Z,97731.44
2022-12-20T01:22:09.472Z,97731.63
2022-12-20T01:27:30.279Z,97729.00
2022-12-20T01:32:50.919Z,97705.84
2022-12-20T01:38:11.590Z,97707.13
2022-12-20T01:43:57.757Z,97699.88
2022-12-20T01:49:24.557Z,97703.44
2022-12-20T01:54:53.184Z,97680.66
2022-12-20T02:00:14.610Z,97688.53
2022-12-20T02:05:39.468Z,97691.91
2022-12-20T02:11:29.525Z,97690.16
2022-12-20T02:17:08.253Z,97682.44
2022-12-20T02:22:40.954Z,97676.38
2022-12-20T02:28:14.758Z,97672.13
2022-12-20T02:33:35.294Z,97691.56
2022-12-20T02:38:56.119Z,97684.66
2022-12-20T02:44:39.277Z,97671.19
2022-12-20T02:50:01.063Z,97680.03
2022-12-20T02:55:37.897Z,97684.25
2022-12-20T03:01:04.572Z,97671.16
2022-12-20T03:06:26.291Z,97656.81
2022-12-20T03:11:47.155Z,97652.56
2022-12-20T03:17:08.808Z,97639.81
2022-12-20T03:22:33.658Z,97628.00
2022-12-20T03:27:55.389Z,97632.94
2022-12-20T03:33:18.263Z,97646.06
2022-12-20T03:38:41.352Z,97641.59
2022-12-20T03:44:02.594Z,97657.97
2022-12-20T03:49:25.394Z,97659.66
2022-12-20T03:54:46.059Z,97650.81
2022-12-20T04:00:12.702Z,97665.56
2022-12-20T04:05:40.762Z,97671.13
2022-12-20T04:11:16.537Z,97672.28
2022-12-20T04:16:45.595Z,97664.47
2022-12-20T04:22:07.820Z,97645.28
2022-12-20T04:27:48.161Z,97620.84
2022-12-20T04:33:09.164Z,97637.97
2022-12-20T04:38:30.279Z,97665.50
2022-12-20T04:43:53.607Z,97662.84
2022-12-20T04:49:16.572Z,97653.25
2022-12-20T04:54:38.716Z,97657.47
2022-12-20T05:00:08.944Z,97681.22
2022-12-20T05:05:34.656Z,97669.63
2022-12-20T05:10:55.487Z,97644.94
2022-12-20T05:16:16.593Z,97643.53
2022-12-20T05:21:56.350Z,97633.50
2022-12-20T05:27:16.992Z,97635.81
2022-12-20T05:32:38.338Z,97633.19
2022-12-20T05:37:59.176Z,97635.28
2022-12-20T05:43:20.949Z,97637.09
2022-12-20T05:48:42.258Z,97575.91
2022-12-20T05:54:04.356Z,97566.88
2022-12-20T05:59:49.276Z,97603.34
2022-12-20T06:05:12.987Z,97664.63
2022-12-20T06:10:35.076Z,97650.06
2022-12-20T06:15:56.473Z,97645.72
2022-12-20T06:21:18.006Z,97631.19
2022-12-20T06:26:39.325Z,97633.78
2022-12-20T06:32:02.243Z,97652.16
2022-12-20T06:37:23.052Z,97617.78
2022-12-20T06:42:44.633Z,97612.31
2022-12-20T06:48:06.495Z,97593.06
2022-12-20T06:53:29.139Z,97611.13
2022-12-20T06:58:49.811Z,97595.88
2022-12-20T07:04:10.884Z,97589.03
2022-12-20T07:09:31.856Z,97607.72
2022-12-20T07:14:52.783Z,97585.50
2022-12-20T07:20:14.707Z,97577.50
2022-12-20T07:25:35.637Z,97533.81
2022-12-20T07:31:01.631Z,97545.09
2022-12-20T07:36:22.519Z,97522.19
2022-12-20T07:41:43.230Z,97546.91
2022-12-20T07:47:10.043Z,97597.63
2022-12-20T07:52:34.439Z,97588.66
2022-12-20T07:58:01.101Z,97572.13
2022-12-20T08:03:31.872Z,97576.34
2022-12-20T08:08:57.744Z,97614.34
2022-12-20T08:14:19.607Z,97615.00
2022-12-20T08:19:40.350Z,97614.44
2022-12-20T08:25:01.575Z,97583.53
2022-12-20T08:30:22.286Z,97588.38
2022-12-20T08:35:43.023Z,97582.81
2022-12-20T08:41:14.847Z,97572.66
2022-12-20T08:46:37.193Z,97586.13
2022-12-20T08:51:57.840Z,97584.28
2022-12-20T08:57:18.572Z,97518.66
2022-12-20T09:02:41.308Z,97479.97
2022-12-20T09:08:02.341Z,97528.22
2022-12-20T09:13:23.063Z,97581.34
2022-12-20T09:18:44.362Z,97608.28
2022-12-20T09:24:06.294Z,97577.22
2022-12-20T09:29:33.580Z,97600.66
2022-12-20T09:34:56.133Z,97594.56
2022-12-20T09:40:21.052Z,97587.34
2022-12-20T09:45:42.694Z,97576.63
2022-12-20T09:51:12.537Z,97580.28
2022-12-20T09:56:37.882Z,97558.97
2022-12-20T10:02:13.277Z,97562.00
2022-12-20T10:07:48.596Z,97513.88
2022-12-20T10:13:35.531Z,97502.59
2022-12-20T10:19:12.947Z,97507.34
2022-12-20T10:24:35.608Z,97534.16
2022-12-20T10:29:57.115Z,97546.84
2022-12-20T10:35:25.451Z,97514.13
2022-12-20T10:46:42.984Z,97481.94
2022-12-20T10:52:14.185Z,97474.97
2022-12-20T10:57:35.189Z,97468.09
2022-12-20T11:03:13.047Z,97481.78
2022-12-20T11:08:46.773Z,97479.41
2022-12-20T11:14:16.044Z,97476.84
2022-12-20T11:20:05.107Z,97476.59
2022-12-20T11:25:39.511Z,97510.31
2022-12-20T11:31:09.239Z,97492.63
2022-12-20T11:36:55.122Z,97504.81
2022-12-20T11:43:00.756Z,97468.72
2022-12-20T11:48:27.267Z,97471.28
2022-12-20T11:53:57.753Z,97452.81
2022-12-20T11:59:37.161Z,97448.56
2022-12-20T12:05:18.279Z,97438.66
2022-12-20T12:10:45.103Z,97408.72
2022-12-20T12:16:23.360Z,97393.81
2022-12-20T12:21:52.561Z,97392.53
2022-12-20T12:27:22.684Z,97383.63
2022-12-20T12:33:00.514Z,97382.25
2022-12-20T12:38:39.278Z,97379.94
2022-12-20T12:44:25.684Z,97378.25
2022-12-20T12:49:50.257Z,97376.47
2022-12-20T12:55:39.241Z,97360.94
2022-12-20T13:01:03.312Z,97373.13
2022-12-20T13:06:24.054Z,97360.50
2022-12-20T13:11:47.494Z,97357.94
2022-12-20T13:17:13.210Z,97359.75
2022-12-20T13:22:36.257Z,97347.97
2022-12-20T13:28:16.958Z,97347.00
2022-12-20T13:33:43.549Z,97354.59
2022-12-20T13:39:24.383Z,97348.50
2022-12-20T13:44:47.549Z,97338.94
2022-12-20T13:50:41.800Z,97343.97
2022-12-20T13:56:27.552Z,97343.88
2022-12-20T14:02:00.303Z,97350.75
2022-12-20T14:07:21.358Z,97345.78
2022-12-20T14:12:46.229Z,97345.00
2022-12-20T14:18:18.192Z,97348.28
2022-12-20T14:23:43.594Z,97350.75
2022-12-20T14:29:11.600Z,97326.06
2022-12-20T14:34:41.349Z,97340.72
2022-12-20T14:40:16.607Z,97336.41
2022-12-20T14:45:37.275Z,97328.72
2022-12-20T14:50:58.079Z,97321.13
2022-12-20T14:56:27.836Z,97303.38
2022-12-20T15:01:53.190Z,97279.00
2022-12-20T15:07:31.557Z,97279.31
2022-12-20T15:12:52.271Z,97286.31
2022-12-20T15:18:14.966Z,97269.25
2022-12-20T15:23:36.232Z,97262.56
2022-12-20T15:28:57.670Z,97269.16
2022-12-20T15:34:26.932Z,97290.28
2022-12-20T15:39:47.983Z,97283.47
2022-12-20T15:45:16.098Z,97273.53
2022-12-20T15:50:37.246Z,97260.09
2022-12-20T15:55:58.340Z,97274.94
2022-12-20T16:01:31.183Z,97298.84
2022-12-20T16:06:57.068Z,97303.16
2022-12-20T16:12:29.584Z,97296.22
2022-12-20T16:17:50.678Z,97294.56
2022-12-20T16:23:24.797Z,97281.81
2022-12-20T16:28:47.976Z,97285.44
2022-12-20T16:34:17.104Z,97287.09
2022-12-20T16:39:38.090Z,97280.72
2022-12-20T16:44:58.756Z,97267.50
2022-12-20T16:50:20.511Z,97262.63
2022-12-20T16:55:41.311Z,97263.69
2022-12-20T17:01:02.253Z,97242.59
2022-12-20T17:06:22.897Z,97269.13
2022-12-20T17:11:43.805Z,97258.00
2022-12-20T17:17:05.011Z,97262.31
2022-12-20T17:28:05.484Z,97273.53
2022-12-20T17:33:26.298Z,97263.22
2022-12-20T17:38:49.636Z,97248.03
2022-12-20T17:44:23.817Z,97250.88
2022-12-20T17:49:44.913Z,97250.09
2022-12-20T17:55:06.333Z,97229.78
2022-12-20T18:00:36.603Z,97225.53
2022-12-20T18:06:07.547Z,97220.41
2022-12-20T18:11:29.233Z,97200.66
2022-12-20T18:16:50.153Z,97180.91
2022-12-20T18:22:10.879Z,97176.66
2022-12-20T18:27:31.759Z,97185.06
2022-12-20T18:32:52.515Z,97193.81
2022-12-20T18:38:13.396Z,97193.19
2022-12-20T18:43:35.327Z,97213.56
2022-12-20T18:48:58.507Z,97202.03
2022-12-20T18:54:19.256Z,97188.53
2022-12-20T18:59:39.874Z,97215.72
2022-12-20T19:05:00.855Z,97219.94
2022-12-20T19:10:21.655Z,97208.91
2022-12-20T19:15:45.121Z,97175.59
2022-12-20T19:21:17.113Z,97165.25
2022-12-20T19:26:39.160Z,97171.84
2022-12-20T19:32:00.305Z,97163.56
2022-12-20T19:37:21.005Z,97175.47
2022-12-20T19:42:44.113Z,97176.00
2022-12-20T19:48:05.413Z,97186.19
2022-12-20T19:53:26.267Z,97179.88
2022-12-20T19:58:47.941Z,97155.03
2022-12-20T20:04:10.171Z,97132.28
2022-12-20T20:09:31.074Z,97135.63
2022-12-20T20:14:53.362Z,97124.41
2022-12-20T20:20:14.498Z,97126.53
2022-12-20T20:25:35.546Z,97104.16
2022-12-20T20:30:56.775Z,97105.16
2022-12-20T20:36:20.535Z,97086.59
2022-12-20T20:41:42.865Z,97080.00
2022-12-20T20:47:03.596Z,97141.22
2022-12-20T20:52:24.333Z,97136.59
2022-12-20T20:57:45.121Z,97124.72
2022-12-20T21:03:05.939Z,97119.50
2022-12-20T21:08:27.167Z,97143.72
2022-12-20T21:13:47.625Z,97110.41
2022-12-20T21:19:09.568Z,97141.91
2022-12-20T21:24:30.981Z,97116.34
2022-12-20T21:29:52.643Z,97115.56
2022-12-20T21:35:13.688Z,97133.66
2022-12-20T21:40:35.229Z,97108.22
2022-12-20T21:45:56.191Z,97076.09
2022-12-20T21:51:21.287Z,97117.81
2022-12-20T21:56:42.276Z,97108.06
2022-12-20T22:02:04.203Z,97095.00
2022-12-20T22:07:25.287Z,97076.69
2022-12-20T22:12:46.022Z,97090.28
2022-12-20T22:18:08.336Z,97069.91
2022-12-20T22:23:29.173Z,97039.25
2022-12-20T22:28:58.919Z,97026.31
2022-12-20T22:34:20.364Z,97038.13
2022-12-20T22:39:41.276Z,97027.75
2022-12-20T22:45:02.476Z,97025.66
2022-12-20T22:50:23.367Z,97033.38
2022-12-20T22:55:44.207Z,97022.66
2022-12-20T23:01:08.313Z,97020.88
2022-12-20T23:06:29.386Z,97016.84
2022-12-20T23:12:08.952Z,96995.34
2022-12-20T23:17:29.530Z,97002.47
2022-12-20T23:22:50.952Z,96991.13
2022-12-20T23:28:11.815Z,96993.38
2022-12-20T23:33:32.817Z,96992.69
2022-12-20T23:38:53.481Z,96980.28
2022-12-20T23:44:14.267Z,96996.78
2022-12-20T23:49:34.950Z,97019.84
2022-12-20T23:54:55.687Z,97010.53
